Time;durP1;ratioP1;P1;durP2;ratioP2;P2;SDS_P1;SDS_P2;PMS_P1;PMS_P2;Temp;Humidity;BMP_temperature;BMP_pressure;BME280_temperature;BME280_humidity;BME280_pressure;Samples;Min_cycle;Max_cycle;Signal;HPM_P1;HPM_P2
2022/03/30 00:00:39;;;;;;;1.03;1.03;;;10.80;51.60;10.10;97093.00;;;;5033481;28;20204;-73
2022/03/30 00:03:06;;;;;;;3.97;1.30;;;10.70;52.30;10.10;97103.00;;;;5033473;28;20658;-73
2022/03/30 00:05:33;;;;;;;2.03;1.77;;;10.70;52.70;10.20;97105.00;;;;5033353;28;20236;-72
2022/03/30 00:07:59;;;;;;;2.07;1.97;;;10.80;52.70;10.10;97086.00;;;;5033299;28;20767;-74
2022/03/30 00:10:26;;;;;;;1.33;1.33;;;10.80;52.10;10.10;97101.00;;;;5015810;28;20699;-73
2022/03/30 00:12:56;;;;;;;3.67;3.37;;;10.70;52.20;9.90;97103.00;;;;5033337;28;20623;-73
2022/03/30 00:15:26;;;;;;;4.43;2.50;;;10.70;52.50;9.80;97105.00;;;;5033490;28;20266;-73
2022/03/30 00:17:52;;;;;;;1.50;1.50;;;10.50;53.10;9.90;97095.00;;;;5033216;28;20311;-73
2022/03/30 00:20:22;;;;;;;3.13;2.63;;;10.60;53.30;10.00;97086.00;;;;5033250;28;20659;-73
2022/03/30 00:22:48;;;;;;;2.67;2.43;;;10.60;53.10;10.10;97089.00;;;;5033236;28;20208;-73
2022/03/30 00:25:15;;;;;;;3.33;3.13;;;10.70;53.80;10.20;97066.00;;;;5033160;28;20283;-73
2022/03/30 00:27:43;;;;;;;3.90;2.57;;;10.70;54.00;10.20;97080.00;;;;5033057;28;20226;-73
2022/03/30 00:30:16;;;;;;;5.57;2.53;;;10.70;53.50;10.20;97086.00;;;;5032957;28;20331;-72
2022/03/30 00:32:43;;;;;;;1.77;1.57;;;10.80;53.60;10.20;97088.00;;;;5033021;28;20224;-72
2022/03/30 00:35:10;;;;;;;5.53;2.27;;;10.80;53.40;10.20;97076.00;;;;5015781;28;20296;-73
2022/03/30 00:37:38;;;;;;;2.27;2.17;;;10.80;53.10;10.20;97082.00;;;;5015555;28;20667;-73
2022/03/30 00:40:10;;;;;;;3.50;3.30;;;10.80;53.20;10.20;97079.00;;;;5033347;28;20275;-74
2022/03/30 00:42:36;;;;;;;3.03;2.70;;;10.80;53.60;10.20;97086.00;;;;5036441;28;20258;-73
2022/03/30 00:45:09;;;;;;;3.90;2.60;;;10.80;53.50;10.30;97093.00;;;;5036391;28;20275;-73
2022/03/30 00:47:36;;;;;;;2.53;2.37;;;10.80;52.70;9.90;97073.00;;;;5036543;28;20708;-73
2022/03/30 00:50:04;;;;;;;2.43;2.23;;;10.60;53.30;9.90;97095.00;;;;5036310;28;20228;-73
2022/03/30 00:52:31;;;;;;;3.90;3.50;;;10.60;53.20;10.00;97086.00;;;;5019617;28;20236;-74
2022/03/30 00:54:59;;;;;;;3.27;2.97;;;10.60;53.30;9.90;97079.00;;;;5038474;28;20193;-74
2022/03/30 00:57:28;;;;;;;3.67;3.30;;;10.60;53.70;9.90;97081.00;;;;5036353;28;20308;-75
2022/03/30 00:59:58;;;;;;;2.50;2.40;;;10.60;55.30;9.90;97077.00;;;;5018838;28;20288;-74
2022/03/30 01:02:26;;;;;;;3.10;2.10;;;10.60;56.50;10.10;97079.00;;;;5036059;28;20263;-74
2022/03/30 01:04:53;;;;;;;3.03;2.00;;;10.70;56.30;10.00;97076.00;;;;5018410;28;20216;-75
2022/03/30 01:07:19;;;;;;;4.03;2.80;;;10.60;55.50;10.00;97072.00;;;;5018569;28;20265;-74
2022/03/30 01:09:46;;;;;;;1.47;1.43;;;10.60;55.60;10.00;97067.00;;;;5035976;28;20262;-73
2022/03/30 01:12:16;;;;;;;2.53;2.33;;;10.70;56.10;10.10;97065.00;;;;5036120;28;20201;-74
2022/03/30 01:14:44;;;;;;;1.70;1.60;;;10.70;56.50;10.10;97064.00;;;;5035870;28;20707;-74
2022/03/30 01:17:14;;;;;;;2.80;2.60;;;10.70;55.80;10.00;97065.00;;;;5036104;28;20290;-74
2022/03/30 01:19:40;;;;;;;2.07;1.93;;;10.70;55.50;10.10;97058.00;;;;5036062;28;20193;-73
2022/03/30 01:22:08;;;;;;;2.63;2.43;;;10.70;55.70;10.20;97043.00;;;;5035907;28;20235;-72
2022/03/30 01:24:37;;;;;;;3.10;2.80;;;10.90;56.20;10.10;97051.00;;;;5035902;28;20207;-72
2022/03/30 01:27:04;;;;;;;20.97;3.10;;;10.80;57.20;10.30;97044.00;;;;5035868;28;20197;-74
2022/03/30 01:32:29;;;;;;;1.63;1.50;;;10.90;56.50;10.40;97041.00;;;;5036204;28;20545;-73
2022/03/30 01:34:57;;;;;;;1.60;1.50;;;11.00;55.30;10.30;97031.00;;;;5018432;28;20204;-73
2022/03/30 01:37:28;;;;;;;2.83;2.63;;;10.90;55.60;10.20;97038.00;;;;5035920;28;20225;-73
2022/03/30 01:39:56;;;;;;;2.27;2.17;;;10.90;55.30;10.20;97026.00;;;;5018143;28;20228;-76
2022/03/30 01:42:23;;;;;;;1.90;1.80;;;10.80;56.10;10.20;97028.00;;;;5035555;28;20208;-73
2022/03/30 01:44:50;;;;;;;3.33;2.53;;;10.90;56.20;10.20;97006.00;;;;5035576;28;20228;-73
2022/03/30 01:47:17;;;;;;;2.33;2.13;;;10.90;55.90;10.20;97014.00;;;;5035503;28;20197;-73
2022/03/30 01:49:47;;;;;;;6.27;2.33;;;10.90;56.50;10.20;97020.00;;;;5035303;28;20599;-73
2022/03/30 01:52:16;;;;;;;3.03;2.23;;;10.90;56.20;10.30;97018.00;;;;5034717;28;20204;-73
2022/03/30 01:54:45;;;;;;;2.27;2.13;;;10.90;56.20;10.30;97013.00;;;;5035439;28;20197;-73
2022/03/30 01:57:13;;;;;;;2.40;2.30;;;10.90;56.10;10.30;97015.00;;;;5018171;28;20224;-73
2022/03/30 01:59:41;;;;;;;1.63;1.53;;;10.90;56.80;10.30;97006.00;;;;5035355;28;20636;-73
2022/03/30 02:02:11;;;;;;;2.20;2.10;;;11.00;57.30;10.30;97008.00;;;;5035419;28;20558;-73
2022/03/30 02:04:38;;;;;;;1.47;1.43;;;10.90;58.20;10.30;97008.00;;;;5035570;28;20201;-74
2022/03/30 02:07:08;;;;;;;3.00;2.73;;;11.00;58.00;10.30;97002.00;;;;5035521;28;20295;-74
2022/03/30 02:09:34;;;;;;;2.97;2.40;;;11.00;59.30;10.30;96987.00;;;;5035051;28;20229;-73
2022/03/30 02:12:02;;;;;;;3.57;2.53;;;11.00;59.10;10.40;96988.00;;;;5018195;28;20286;-73
2022/03/30 02:14:28;;;;;;;1.57;1.47;;;11.00;59.90;10.40;96981.00;;;;5039281;28;20203;-73
2022/03/30 02:16:55;;;;;;;2.93;2.13;;;11.00;59.50;10.30;96977.00;;;;5037585;28;20231;-73
2022/03/30 02:19:22;;;;;;;3.83;1.90;;;10.90;59.60;10.30;96979.00;;;;5035604;28;20626;-73
2022/03/30 02:21:49;;;;;;;1.80;1.70;;;10.90;60.40;10.40;96970.00;;;;5017793;28;20196;-74
2022/03/30 02:24:16;;;;;;;2.17;2.07;;;10.90;62.00;10.20;96959.00;;;;5035095;28;20196;-73
2022/03/30 02:26:42;;;;;;;2.50;2.30;;;10.90;61.70;10.20;96962.00;;;;5017540;28;20258;-73
2022/03/30 02:29:12;;;;;;;4.43;2.17;;;10.80;61.80;10.20;96958.00;;;;5034625;28;20288;-74
2022/03/30 02:31:39;;;;;;;2.70;2.50;;;10.90;61.70;10.10;96955.00;;;;5034895;28;20225;-74
2022/03/30 02:34:05;;;;;;;3.33;3.03;;;10.80;61.80;10.20;96947.00;;;;5034776;28;20199;-74
2022/03/30 02:36:32;;;;;;;2.00;1.90;;;10.80;62.30;10.00;96939.00;;;;5034668;28;20541;-73
2022/03/30 02:38:59;;;;;;;1.63;1.57;;;10.80;61.90;10.00;96936.00;;;;5034796;28;20211;-73
2022/03/30 02:41:26;;;;;;;2.90;2.70;;;10.70;61.90;10.00;96946.00;;;;5034860;28;20189;-74
2022/03/30 02:43:53;;;;;;;2.60;2.17;;;10.70;62.20;10.20;96937.00;;;;5034607;28;20252;-74
2022/03/30 02:46:20;;;;;;;3.10;1.67;;;10.80;62.70;10.30;96936.00;;;;5034984;28;20193;-75
2022/03/30 02:48:46;;;;;;;1.17;1.17;;;10.80;62.30;10.30;96935.00;;;;5037293;28;20188;-73
2022/03/30 02:51:13;;;;;;;3.83;2.83;;;10.90;62.30;10.30;96928.00;;;;5038120;28;20303;-75
2022/03/30 02:53:39;;;;;;;1.37;1.37;;;10.90;62.30;10.30;96932.00;;;;5036054;28;20220;-74
2022/03/30 02:56:06;;;;;;;2.57;2.47;;;11.00;61.90;10.30;96926.00;;;;5034360;28;20255;-73
2022/03/30 02:58:35;;;;;;;2.77;2.57;;;10.90;61.30;10.30;96922.00;;;;5034504;28;20200;-73
2022/03/30 03:01:01;;;;;;;3.07;2.37;;;11.00;60.80;10.30;96930.00;;;;5034370;28;20197;-73
2022/03/30 03:03:29;;;;;;;2.67;2.47;;;11.00;61.30;10.30;96923.00;;;;5033601;28;20224;-73
2022/03/30 03:05:55;;;;;;;1.93;1.83;;;11.00;61.90;10.30;96928.00;;;;5033936;28;20201;-74
2022/03/30 03:08:22;;;;;;;12.93;3.50;;;11.00;61.30;10.20;96923.00;;;;5034613;28;20636;-73
2022/03/30 03:10:50;;;;;;;2.23;2.13;;;10.90;61.30;10.20;96921.00;;;;5034264;28;20671;-75
2022/03/30 03:13:17;;;;;;;2.57;1.67;;;10.90;61.20;10.10;96927.00;;;;5034170;28;20197;-73
2022/03/30 03:15:46;;;;;;;3.17;2.87;;;10.80;61.30;10.10;96920.00;;;;5034135;28;20239;-74
2022/03/30 03:18:13;;;;;;;2.70;2.50;;;10.80;61.40;10.10;96920.00;;;;5034170;28;20201;-74
2022/03/30 03:20:44;;;;;;;2.73;2.40;;;10.80;61.40;10.20;96912.00;;;;5034274;28;20271;-73
2022/03/30 03:23:11;;;;;;;1.67;1.63;;;10.80;61.00;10.20;96916.00;;;;5033949;28;20232;-74
2022/03/30 03:25:39;;;;;;;2.23;2.13;;;10.90;61.30;10.20;96908.00;;;;5034016;28;20211;-75
2022/03/30 03:28:07;;;;;;;2.63;2.47;;;10.90;61.80;10.20;96911.00;;;;5016555;28;20659;-74
2022/03/30 03:30:34;;;;;;;3.63;3.33;;;10.90;62.40;10.30;96876.00;;;;5033878;28;20319;-75
2022/03/30 03:33:01;;;;;;;2.73;2.50;;;10.80;62.00;10.30;96886.00;;;;5033835;28;20603;-74
2022/03/30 03:35:29;;;;;;;3.10;2.80;;;10.90;61.50;10.20;96912.00;;;;5016393;28;20216;-74
2022/03/30 03:37:59;;;;;;;3.70;2.50;;;10.90;62.60;10.30;96902.00;;;;5033830;28;20215;-74
2022/03/30 03:40:27;;;;;;;3.50;2.20;;;10.90;62.60;10.30;96903.00;;;;5033771;28;20208;-74
2022/03/30 03:42:56;;;;;;;2.57;2.37;;;10.90;62.10;10.30;96905.00;;;;5033599;28;20224;-74
2022/03/30 03:45:22;;;;;;;2.20;1.67;;;11.00;61.80;10.30;96894.00;;;;5033782;28;20656;-73
2022/03/30 03:47:51;;;;;;;1.97;1.57;;;10.90;61.80;10.30;96888.00;;;;5033731;28;20263;-74
2022/03/30 03:50:21;;;;;;;2.63;2.43;;;11.00;62.00;10.30;96894.00;;;;5016525;28;20240;-73
2022/03/30 03:52:50;;;;;;;3.03;2.27;;;10.90;62.10;10.30;96896.00;;;;5033698;28;20223;-74
2022/03/30 03:55:20;;;;;;;11.40;3.13;;;11.00;62.50;10.30;96901.00;;;;5033648;28;20525;-74
2022/03/30 03:57:47;;;;;;;2.17;2.07;;;11.00;62.90;10.40;96898.00;;;;5033741;28;20197;-74
2022/03/30 04:00:15;;;;;;;2.70;2.47;;;11.00;63.00;10.40;96898.00;;;;5033703;28;20272;-74
2022/03/30 04:02:44;;;;;;;2.77;2.47;;;11.00;62.60;10.40;96893.00;;;;5033597;28;20315;-74
2022/03/30 04:05:14;;;;;;;2.50;2.10;;;11.00;62.50;10.20;96892.00;;;;5033484;28;20270;-74
2022/03/30 04:07:41;;;;;;;1.87;1.77;;;10.90;61.90;10.30;96896.00;;;;5033740;28;20208;-73
2022/03/30 04:10:09;;;;;;;3.83;2.57;;;10.90;62.30;10.20;96894.00;;;;5016573;28;20232;-74
2022/03/30 04:12:38;;;;;;;3.37;3.07;;;10.90;62.50;10.30;96888.00;;;;5017459;28;20196;-73
2022/03/30 04:15:07;;;;;;;3.60;3.30;;;10.90;64.00;10.40;96898.00;;;;5037493;28;20220;-73
2022/03/30 04:17:33;;;;;;;2.00;1.90;;;10.90;63.30;10.30;96896.00;;;;5049732;28;20184;-74
2022/03/30 04:20:00;;;;;;;4.17;2.70;;;11.00;63.70;10.40;96898.00;;;;5048624;28;20210;-75
2022/03/30 04:22:29;;;;;;;3.10;2.87;;;10.90;64.40;10.40;96893.00;;;;5039049;28;20301;-75
2022/03/30 04:24:56;;;;;;;1.23;1.23;;;11.00;63.90;10.40;96891.00;;;;5037484;28;20208;-74
2022/03/30 04:27:22;;;;;;;3.10;2.90;;;11.00;62.50;10.40;96895.00;;;;5036847;28;20333;-74
2022/03/30 04:29:49;;;;;;;2.33;2.03;;;11.00;62.40;10.30;96880.00;;;;5036512;28;20307;-74
2022/03/30 04:32:16;;;;;;;1.63;1.53;;;10.90;62.50;10.20;96889.00;;;;5036829;28;20292;-73
2022/03/30 04:34:43;;;;;;;2.90;2.20;;;10.90;63.20;10.20;96889.00;;;;5036904;28;20205;-73
2022/03/30 04:37:09;;;;;;;4.40;4.00;;;10.80;63.50;10.10;96892.00;;;;5036757;28;20270;-74
2022/03/30 04:39:36;;;;;;;1.73;1.63;;;10.80;62.90;10.20;96895.00;;;;5036487;28;20221;-74
2022/03/30 04:42:06;;;;;;;3.23;2.67;;;10.80;63.50;10.40;96898.00;;;;5036567;28;20197;-74
2022/03/30 04:44:35;;;;;;;2.03;1.93;;;10.90;61.90;10.20;96886.00;;;;5036651;28;20216;-73
2022/03/30 04:47:03;;;;;;;2.43;2.23;;;10.80;62.80;10.10;96895.00;;;;5036362;28;20193;-74
2022/03/30 04:49:32;;;;;;;1.53;1.43;;;10.70;64.70;9.80;96897.00;;;;5018808;28;20224;-74
2022/03/30 04:51:58;;;;;;;3.30;2.57;;;10.60;65.90;9.80;96894.00;;;;5019072;28;20200;-74
2022/03/30 04:54:25;;;;;;;2.73;2.30;;;10.50;67.70;9.90;96896.00;;;;5036556;28;20211;-74
2022/03/30 04:56:53;;;;;;;4.20;3.90;;;10.50;69.00;9.80;96901.00;;;;5036154;28;20248;-74
2022/03/30 04:59:20;;;;;;;1.10;1.03;;;10.50;69.60;9.70;96896.00;;;;5018914;28;20239;-74
2022/03/30 05:01:46;;;;;;;3.23;2.53;;;10.40;71.60;9.70;96905.00;;;;5036117;28;20204;-75
2022/03/30 05:04:14;;;;;;;2.53;2.33;;;10.40;72.40;9.70;96898.00;;;;5018740;28;20231;-74
2022/03/30 05:06:40;;;;;;;2.10;2.00;;;10.40;73.20;9.70;96902.00;;;;5036123;28;20208;-73
2022/03/30 05:09:06;;;;;;;1.63;1.53;;;10.40;74.10;9.90;96898.00;;;;5036032;28;20294;-73
2022/03/30 05:11:33;;;;;;;1.97;1.87;;;10.50;75.40;10.00;96909.00;;;;5036259;28;20228;-73
2022/03/30 05:13:59;;;;;;;1.77;1.67;;;10.50;76.40;10.00;96908.00;;;;5036234;28;20275;-74
2022/03/30 05:16:27;;;;;;;3.40;2.87;;;10.60;77.00;9.80;96897.00;;;;5035982;28;20231;-74
2022/03/30 05:18:53;;;;;;;1.97;1.43;;;10.50;78.70;9.70;96903.00;;;;5018928;28;20208;-73
2022/03/30 05:21:23;;;;;;;3.37;3.17;;;10.40;80.20;9.90;96897.00;;;;5035863;28;20236;-73
2022/03/30 05:23:49;;;;;;;2.07;1.97;;;10.50;82.50;10.00;96907.00;;;;5035877;28;20250;-73
2022/03/30 05:26:16;;;;;;;1.70;1.60;;;10.60;83.70;9.90;96892.00;;;;5035600;28;20197;-73
2022/03/30 05:28:42;;;;;;;3.43;1.43;;;10.60;84.60;9.90;96901.00;;;;5017529;28;20435;-73
2022/03/30 05:31:11;;;;;;;4.13;2.47;;;10.60;85.80;9.90;96900.00;;;;5035768;28;20227;-73
2022/03/30 05:33:37;;;;;;;2.50;2.30;;;10.60;88.70;9.90;96895.00;;;;5035942;28;20291;-73
2022/03/30 05:36:08;;;;;;;2.30;2.20;;;10.50;89.60;9.90;96902.00;;;;5018355;28;20374;-74
2022/03/30 05:38:35;;;;;;;2.03;1.70;;;10.60;90.30;10.00;96908.00;;;;5018841;28;20315;-74
2022/03/30 05:41:02;;;;;;;2.67;1.80;;;10.60;90.80;10.00;96895.00;;;;5038501;28;20201;-73
2022/03/30 05:43:29;;;;;;;1.77;1.67;;;10.60;91.70;10.00;96899.00;;;;5036305;28;20738;-73
2022/03/30 05:45:56;;;;;;;1.33;1.23;;;10.60;92.00;10.10;96895.00;;;;5035705;28;20211;-74
2022/03/30 05:48:24;;;;;;;2.33;2.23;;;10.60;91.80;10.10;96897.00;;;;5035552;28;20203;-74
2022/03/30 05:50:52;;;;;;;1.73;1.67;;;10.60;91.40;10.00;96889.00;;;;5035411;28;20216;-73
2022/03/30 05:53:19;;;;;;;1.23;1.23;;;10.60;92.00;10.00;96899.00;;;;5035482;28;20205;-74
2022/03/30 05:55:46;;;;;;;1.70;1.60;;;10.60;92.90;10.00;96894.00;;;;5035576;28;20247;-73
2022/03/30 05:58:13;;;;;;;3.80;3.40;;;10.60;93.60;9.90;96858.00;;;;5035381;28;20215;-73
2022/03/30 06:00:40;;;;;;;1.43;1.40;;;10.60;94.10;9.90;96886.00;;;;5035288;28;20698;-74
2022/03/30 06:03:07;;;;;;;1.40;1.40;;;10.50;94.60;9.70;96886.00;;;;5035497;28;20305;-75
2022/03/30 06:05:33;;;;;;;1.37;1.27;;;10.50;94.00;9.80;96880.00;;;;5035506;28;20651;-75
2022/03/30 06:08:00;;;;;;;1.47;1.37;;;10.40;94.10;9.90;96879.00;;;;5035209;28;20235;-73
2022/03/30 06:10:29;;;;;;;2.77;2.17;;;10.50;94.40;9.90;96883.00;;;;5035126;28;20664;-72
2022/03/30 06:12:57;;;;;;;1.97;1.83;;;10.60;94.70;9.90;96868.00;;;;5035231;28;20208;-73
2022/03/30 06:15:24;;;;;;;2.27;1.97;;;10.60;94.80;10.00;96871.00;;;;5035172;28;20220;-73
2022/03/30 06:17:53;;;;;;;5.10;2.60;;;10.50;94.70;10.00;96873.00;;;;5035337;28;20589;-72
2022/03/30 06:20:21;;;;;;;2.70;1.93;;;10.60;94.90;9.90;96871.00;;;;5035382;28;20192;-74
2022/03/30 06:22:48;;;;;;;1.30;1.30;;;10.60;95.20;10.00;96867.00;;;;5035151;28;20224;-73
2022/03/30 06:25:14;;;;;;;4.27;2.40;;;10.60;95.80;10.00;96870.00;;;;5034967;28;20250;-73
2022/03/30 06:27:41;;;;;;;2.00;1.87;;;10.60;96.00;10.00;96860.00;;;;5034837;28;20282;-74
2022/03/30 06:30:11;;;;;;;4.80;3.60;;;10.60;96.30;10.00;96868.00;;;;5034856;28;20216;-73
2022/03/30 06:32:40;;;;;;;1.60;1.50;;;10.60;96.40;10.00;96861.00;;;;5035256;28;20197;-74
2022/03/30 06:35:08;;;;;;;2.47;2.10;;;10.60;96.80;10.00;96865.00;;;;5034841;28;20224;-74
2022/03/30 06:37:34;;;;;;;2.13;2.03;;;10.60;97.10;10.00;96863.00;;;;5034878;28;20197;-72
2022/03/30 06:40:01;;;;;;;2.20;2.10;;;10.60;97.00;10.10;96863.00;;;;5034773;28;20232;-75
2022/03/30 06:42:28;;;;;;;2.57;2.47;;;10.60;97.20;10.10;96859.00;;;;5034907;28;20208;-74
2022/03/30 06:44:56;;;;;;;1.43;1.33;;;10.60;97.80;10.10;96857.00;;;;5018050;28;20216;-74
2022/03/30 06:47:23;;;;;;;1.77;1.63;;;10.70;97.40;10.10;96855.00;;;;5034982;28;20616;-70
2022/03/30 06:49:50;;;;;;;2.30;2.10;;;10.70;97.50;10.10;96864.00;;;;5001218;28;20224;-74
2022/03/30 06:52:16;;;;;;;2.53;2.37;;;10.70;97.50;10.00;96857.00;;;;5035001;28;20303;-72
2022/03/30 06:54:43;;;;;;;2.60;2.07;;;10.70;97.50;10.10;96853.00;;;;5034887;28;20205;-72
2022/03/30 06:57:09;;;;;;;2.90;2.07;;;10.60;97.50;10.00;96848.00;;;;5034806;28;20203;-72
2022/03/30 06:59:36;;;;;;;1.27;1.27;;;10.70;97.60;10.00;96840.00;;;;5034540;28;20283;-72
2022/03/30 07:02:03;;;;;;;2.10;1.90;;;10.70;97.70;10.10;96846.00;;;;5017449;28;20224;-72
2022/03/30 07:04:31;;;;;;;1.27;1.20;;;10.70;98.20;10.00;96842.00;;;;5034458;28;20244;-71
2022/03/30 07:12:32;;;;;;;3.00;1.80;;;10.70;98.40;10.10;96843.00;;;;5034171;28;20224;-72
2022/03/30 07:14:58;;;;;;;1.47;1.47;;;10.70;98.60;10.20;96836.00;;;;5034155;28;20270;-73
2022/03/30 07:17:25;;;;;;;2.63;2.43;;;10.70;98.70;10.20;96849.00;;;;5034023;28;20652;-72
2022/03/30 07:19:52;;;;;;;6.37;3.70;;;10.80;98.70;10.20;96831.00;;;;5034047;28;20291;-72
2022/03/30 07:22:19;;;;;;;1.87;1.77;;;10.80;99.30;10.20;96835.00;;;;5033959;28;20632;-72
2022/03/30 07:24:45;;;;;;;1.77;1.67;;;10.80;98.40;10.20;96837.00;;;;5034318;28;20216;-72
2022/03/30 07:27:12;;;;;;;2.07;1.97;;;10.80;98.50;10.10;96795.00;;;;5034597;28;20246;-73
2022/03/30 07:29:38;;;;;;;2.10;2.00;;;10.70;98.60;10.10;96827.00;;;;5040813;28;20211;-73
2022/03/30 07:32:06;;;;;;;2.13;1.93;;;10.70;98.50;10.10;96831.00;;;;5037713;28;20196;-73
2022/03/30 07:34:33;;;;;;;3.20;2.67;;;10.70;98.80;10.20;96829.00;;;;5034005;28;20208;-72
2022/03/30 07:37:00;;;;;;;6.40;1.83;;;10.70;99.00;10.30;96823.00;;;;5033765;28;20221;-72
2022/03/30 07:39:26;;;;;;;3.13;2.70;;;10.80;99.20;10.20;96821.00;;;;5033870;28;20704;-73
2022/03/30 07:41:53;;;;;;;1.20;1.20;;;10.80;99.00;10.30;96826.00;;;;5033902;28;20211;-73
2022/03/30 07:44:22;;;;;;;2.77;2.57;;;10.80;99.00;10.40;96818.00;;;;5016671;28;20233;-73
2022/03/30 07:46:48;;;;;;;2.40;2.20;;;10.90;99.00;10.50;96816.00;;;;5016425;28;20274;-72
2022/03/30 07:49:16;;;;;;;4.50;2.17;;;11.00;99.00;10.50;96815.00;;;;5033751;28;20220;-72
2022/03/30 07:51:43;;;;;;;3.13;2.93;;;11.10;99.20;10.60;96808.00;;;;5032956;28;20585;-73
2022/03/30 07:54:11;;;;;;;1.13;1.13;;;11.10;98.80;10.60;96806.00;;;;5033629;28;20279;-74
2022/03/30 07:56:38;;;;;;;1.50;1.37;;;11.10;98.60;10.70;96813.00;;;;5016130;28;20212;-75
2022/03/30 07:59:05;;;;;;;1.00;1.00;;;;;10.80;96818.00;;;;5016303;28;20544;-75
2022/03/30 08:01:31;;;;;;;2.60;2.03;;;11.20;98.20;10.80;96816.00;;;;5033527;28;20726;-76
2022/03/30 08:03:58;;;;;;;2.03;1.73;;;11.30;98.70;10.90;96817.00;;;;5033486;28;20212;-75
2022/03/30 08:06:27;;;;;;;1.30;1.30;;;11.40;98.90;10.90;96809.00;;;;5033686;28;20212;-73
2022/03/30 08:08:53;;;;;;;3.03;2.47;;;11.50;98.80;11.00;96813.00;;;;5016081;28;20374;-75
2022/03/30 08:11:20;;;;;;;2.70;2.50;;;11.50;98.50;11.10;96814.00;;;;5033300;28;20644;-74
2022/03/30 08:13:47;;;;;;;1.10;1.07;;;11.60;98.80;11.00;96817.00;;;;5016131;28;20201;-75
2022/03/30 08:16:14;;;;;;;10.37;2.73;;;11.50;97.30;11.00;96819.00;;;;5033477;28;20311;-74
2022/03/30 08:18:43;;;;;;;21.93;3.93;;;11.50;96.50;11.20;96810.00;;;;5033470;28;20219;-72
2022/03/30 08:23:54;;;;;;;3.87;3.47;;;11.80;95.50;11.40;96806.00;;;;5034296;28;20290;-71
2022/03/30 08:26:22;;;;;;;3.10;1.63;;;11.90;95.10;11.40;96819.00;;;;5034696;28;20244;-72
2022/03/30 08:28:48;;;;;;;0.90;0.90;;;11.90;95.70;11.40;96816.00;;;;5038497;28;20236;-72
2022/03/30 08:31:15;;;;;;;3.43;2.10;;;11.90;96.00;11.60;96814.00;;;;5034016;28;20212;-72
2022/03/30 08:33:42;;;;;;;3.07;2.73;;;12.00;95.10;11.70;96815.00;;;;5033601;28;20196;-72
2022/03/30 08:36:09;;;;;;;4.20;3.23;;;12.20;94.80;11.70;96811.00;;;;5033422;28;20299;-74
2022/03/30 08:38:37;;;;;;;1.13;1.13;;;12.20;94.70;11.60;96816.00;;;;5033241;28;20208;-73
2022/03/30 08:41:04;;;;;;;3.10;2.77;;;12.10;95.20;11.50;96820.00;;;;5033143;28;20213;-73
2022/03/30 08:43:32;;;;;;;2.87;2.63;;;12.10;94.80;11.60;96813.00;;;;5033208;28;20219;-74
2022/03/30 08:46:00;;;;;;;2.17;2.07;;;12.10;94.80;11.60;96818.00;;;;5033051;28;20197;-75
2022/03/30 08:48:27;;;;;;;1.50;1.47;;;12.10;94.90;11.60;96818.00;;;;5032852;28;20255;-74
2022/03/30 08:50:54;;;;;;;2.40;2.23;;;12.10;95.20;11.60;96812.00;;;;5033254;28;20225;-74
2022/03/30 08:53:25;;;;;;;15.13;2.37;;;12.10;94.60;11.40;96817.00;;;;5033144;28;20212;-75
2022/03/30 08:55:52;;;;;;;1.77;1.67;;;12.00;94.70;11.40;96820.00;;;;5032804;28;20213;-75
2022/03/30 08:58:18;;;;;;;1.33;1.33;;;12.00;94.70;11.40;96822.00;;;;5032933;28;20640;-73
2022/03/30 09:00:46;;;;;;;2.17;2.07;;;12.00;94.90;11.40;96819.00;;;;5032955;28;20624;-72
2022/03/30 09:03:17;;;;;;;2.33;2.23;;;11.90;95.10;11.40;96819.00;;;;5036139;28;20654;-73
2022/03/30 09:05:44;;;;;;;2.97;2.77;;;11.90;95.80;11.20;96813.00;;;;5036445;28;20200;-73
2022/03/30 09:08:17;;;;;;;5.43;2.40;;;11.90;95.80;11.00;96820.00;;;;5035933;28;20285;-73
2022/03/30 09:10:48;;;;;;;3.60;3.33;;;11.80;95.80;11.00;96820.00;;;;5035962;28;20252;-74
2022/03/30 09:13:17;;;;;;;3.57;2.67;;;11.70;96.40;10.90;96814.00;;;;5036033;28;20204;-74
2022/03/30 09:15:49;;;;;;;1.90;1.80;;;11.60;96.90;10.70;96816.00;;;;5036155;28;20290;-73
2022/03/30 09:18:17;;;;;;;1.20;1.20;;;11.40;94.80;10.60;96809.00;;;;5036089;28;20256;-73
2022/03/30 09:20:47;;;;;;;2.20;1.53;;;11.30;94.50;10.70;96810.00;;;;5035880;28;20228;-73
2022/03/30 09:23:17;;;;;;;0.90;0.90;;;11.30;99.20;10.80;96796.00;;;;5035929;28;20210;-73
2022/03/30 09:25:46;;;;;;;1.50;1.43;;;11.40;93.90;10.70;96814.00;;;;5018314;28;20213;-72
2022/03/30 09:28:15;;;;;;;3.53;3.20;;;11.40;93.70;10.70;96798.00;;;;5035702;28;20350;-73
2022/03/30 09:30:43;;;;;;;3.23;1.93;;;11.40;93.10;10.80;96808.00;;;;5035830;28;20664;-73
2022/03/30 09:33:10;;;;;;;1.10;1.10;;;11.40;93.90;10.70;96805.00;;;;5018620;28;20524;-74
2022/03/30 09:35:41;;;;;;;1.47;1.43;;;11.30;94.60;10.90;96804.00;;;;5035714;28;20220;-73
2022/03/30 09:38:13;;;;;;;2.83;1.97;;;11.40;91.90;10.60;96803.00;;;;5035734;28;20204;-73
2022/03/30 09:40:44;;;;;;;0.97;0.97;;;11.30;92.50;10.30;96802.00;;;;5018404;28;20278;-73
2022/03/30 09:43:20;;;;;;;1.90;1.80;;;11.10;93.20;10.30;96777.00;;;;5035641;28;20270;-73
2022/03/30 09:45:48;;;;;;;1.00;1.00;;;10.90;94.70;10.40;96805.00;;;;5035581;28;20270;-75
2022/03/30 09:48:23;;;;;;;3.83;2.90;;;11.00;95.40;10.20;96802.00;;;;5035525;28;20204;-71
2022/03/30 09:50:53;;;;;;;2.80;2.60;;;10.90;94.90;10.00;96796.00;;;;5035487;28;20267;-72
2022/03/30 09:53:22;;;;;;;1.67;1.57;;;10.70;96.80;10.20;96793.00;;;;5035389;28;20311;-73
2022/03/30 09:55:59;;;;;;;1.80;1.73;;;10.80;96.90;10.50;96788.00;;;;5035379;28;20258;-74
2022/03/30 09:58:30;;;;;;;1.70;1.60;;;11.00;95.90;10.60;96789.00;;;;5035296;28;20678;-73
2022/03/30 10:01:16;;;;;;;4.70;3.20;;;11.10;95.30;10.60;96786.00;;;;5035358;28;20188;-73
2022/03/30 10:03:49;;;;;;;3.23;3.03;;;11.10;94.70;10.60;96783.00;;;;5035281;28;20215;-73
2022/03/30 10:06:18;;;;;;;1.43;1.33;;;11.10;93.90;10.50;96779.00;;;;5035403;28;20303;-75
2022/03/30 10:08:48;;;;;;;5.60;2.23;;;11.10;94.70;10.50;96778.00;;;;5035282;28;20204;-72
2022/03/30 10:11:16;;;;;;;1.07;1.07;;;11.10;95.10;10.40;96781.00;;;;5035163;28;20228;-74
2022/03/30 10:13:47;;;;;;;2.70;2.17;;;11.00;94.90;10.70;96779.00;;;;5034480;28;20223;-74
2022/03/30 10:16:14;;;;;;;1.63;1.53;;;11.20;94.50;10.70;96769.00;;;;5034369;28;20212;-75
2022/03/30 10:18:41;;;;;;;2.47;2.33;;;11.20;94.00;10.80;96767.00;;;;5034888;28;20251;-74
2022/03/30 10:21:25;;;;;;;2.27;2.07;;;11.30;93.50;10.80;96778.00;;;;5034939;28;20591;-74
2022/03/30 10:24:40;;;;;;;1.03;1.03;;;11.30;92.90;10.80;96768.00;;;;5035099;28;20247;-73
2022/03/30 10:27:14;;;;;;;1.27;1.10;;;11.30;92.80;10.70;96760.00;;;;5027232;28;20205;-74
2022/03/30 10:29:52;;;;;;;3.80;2.83;;;11.30;93.60;10.70;96760.00;;;;5017698;28;20592;-73
2022/03/30 10:32:22;;;;;;;1.20;1.20;;;11.30;93.70;10.80;96751.00;;;;5017333;28;20722;-73
2022/03/30 10:35:02;;;;;;;1.87;1.77;;;11.40;93.20;10.90;96750.00;;;;5017599;28;20209;-75
2022/03/30 10:37:34;;;;;;;1.07;1.07;;;11.40;92.60;10.80;96744.00;;;;5017661;28;20651;-74
2022/03/30 10:40:19;;;;;;;4.63;2.40;;;11.40;91.90;10.60;96746.00;;;;5034809;28;20288;-73
2022/03/30 10:43:08;;;;;;;1.37;1.37;;;11.40;91.50;10.60;96747.00;;;;5034812;28;20227;-72
2022/03/30 10:45:55;;;;;;;3.23;2.53;;;11.20;92.20;10.70;96743.00;;;;5017456;28;20741;-73
2022/03/30 10:48:37;;;;;;;1.50;1.40;;;11.30;92.70;10.70;96733.00;;;;5034806;28;20227;-71
2022/03/30 10:51:18;;;;;;;1.47;1.37;;;11.40;92.70;10.70;96749.00;;;;5017040;28;20228;-72
2022/03/30 10:53:48;;;;;;;0.97;0.97;;;11.30;92.50;10.80;96739.00;;;;5034568;28;20200;-75
2022/03/30 10:56:32;;;;;;;1.63;1.23;;;11.40;92.50;10.90;96739.00;;;;5034769;28;20208;-74
2022/03/30 10:59:15;;;;;;;0.70;0.70;;;11.50;91.60;10.80;96728.00;;;;5034434;28;20257;-72
2022/03/30 11:01:44;;;;;;;2.30;2.10;;;11.40;91.70;10.80;96727.00;;;;5034471;28;20185;-74
2022/03/30 11:04:24;;;;;;;1.20;1.07;;;11.40;90.90;10.70;96704.00;;;;5034469;28;20220;-73
2022/03/30 11:07:34;;;;;;;1.37;1.30;;;11.40;91.60;10.50;96730.00;;;;5034573;28;20196;-73
2022/03/30 11:10:17;;;;;;;1.47;1.37;;;11.20;92.50;10.70;96728.00;;;;5034260;28;20224;-75
2022/03/30 11:13:11;;;;;;;0.70;0.70;;;11.30;92.10;10.70;96718.00;;;;5017118;28;20200;-74